sensor_id;sensor_type;location;lat;lon;timestamp;P1;durP1;ratioP1;P2;durP2;ratioP2
22034;SDS011;11181;51.002;4.356;2022-12-18T00:00:45;46.57;;;20.13;;
22034;SDS011;11181;51.002;4.356;2022-12-18T00:03:13;35.57;;;18.33;;
22034;SDS011;11181;51.002;4.356;2022-12-18T00:05:45;39.60;;;18.90;;
22034;SDS011;11181;51.002;4.356;2022-12-18T00:08:13;38.20;;;19.10;;
22034;SDS011;11181;51.002;4.356;2022-12-18T00:10:42;35.03;;;17.97;;
22034;SDS011;11181;51.002;4.356;2022-12-18T00:13:09;32.97;;;18.93;;
22034;SDS011;11181;51.002;4.356;2022-12-18T00:15:37;38.67;;;20.63;;
22034;SDS011;11181;51.002;4.356;2022-12-18T00:18:06;39.20;;;19.87;;
22034;SDS011;11181;51.002;4.356;2022-12-18T00:20:35;39.37;;;18.90;;
22034;SDS011;11181;51.002;4.356;2022-12-18T00:23:03;38.23;;;20.63;;
22034;SDS011;11181;51.002;4.356;2022-12-18T00:25:32;43.77;;;22.10;;
22034;SDS011;11181;51.002;4.356;2022-12-18T00:27:59;40.13;;;18.43;;
22034;SDS011;11181;51.002;4.356;2022-12-18T00:30:26;43.57;;;20.77;;
22034;SDS011;11181;51.002;4.356;2022-12-18T00:32:53;37.53;;;19.97;;
22034;SDS011;11181;51.002;4.356;2022-12-18T00:35:21;36.20;;;19.07;;
22034;SDS011;11181;51.002;4.356;2022-12-18T00:37:48;35.47;;;18.43;;
22034;SDS011;11181;51.002;4.356;2022-12-18T00:40:15;37.47;;;18.00;;
22034;SDS011;11181;51.002;4.356;2022-12-18T00:42:42;38.07;;;19.90;;
22034;SDS011;11181;51.002;4.356;2022-12-18T00:45:23;43.97;;;20.93;;
22034;SDS011;11181;51.002;4.356;2022-12-18T00:47:51;44.10;;;21.17;;
22034;SDS011;11181;51.002;4.356;2022-12-18T00:50:18;40.43;;;22.50;;
22034;SDS011;11181;51.002;4.356;2022-12-18T00:52:46;40.53;;;19.77;;
22034;SDS011;11181;51.002;4.356;2022-12-18T00:55:13;41.97;;;21.53;;
22034;SDS011;11181;51.002;4.356;2022-12-18T00:57:41;40.87;;;20.00;;
22034;SDS011;11181;51.002;4.356;2022-12-18T01:00:09;39.73;;;20.17;;
22034;SDS011;11181;51.002;4.356;2022-12-18T01:02:37;40.67;;;19.60;;
22034;SDS011;11181;51.002;4.356;2022-12-18T01:05:05;43.63;;;19.07;;
22034;SDS011;11181;51.002;4.356;2022-12-18T01:07:33;39.17;;;20.73;;
22034;SDS011;11181;51.002;4.356;2022-12-18T01:10:01;38.87;;;21.43;;
22034;SDS011;11181;51.002;4.356;2022-12-18T01:12:28;34.63;;;18.07;;
22034;SDS011;11181;51.002;4.356;2022-12-18T01:14:55;39.87;;;19.00;;
22034;SDS011;11181;51.002;4.356;2022-12-18T01:17:22;36.10;;;20.83;;
22034;SDS011;11181;51.002;4.356;2022-12-18T01:19:49;45.07;;;23.27;;
22034;SDS011;11181;51.002;4.356;2022-12-18T01:22:16;40.60;;;22.83;;
22034;SDS011;11181;51.002;4.356;2022-12-18T01:24:43;38.83;;;20.50;;
22034;SDS011;11181;51.002;4.356;2022-12-18T01:27:11;39.83;;;19.70;;
22034;SDS011;11181;51.002;4.356;2022-12-18T01:29:38;38.10;;;18.93;;
22034;SDS011;11181;51.002;4.356;2022-12-18T01:32:05;43.83;;;20.43;;
22034;SDS011;11181;51.002;4.356;2022-12-18T01:34:32;44.20;;;20.70;;
22034;SDS011;11181;51.002;4.356;2022-12-18T01:37:01;41.47;;;22.43;;
22034;SDS011;11181;51.002;4.356;2022-12-18T01:39:28;36.90;;;20.03;;
22034;SDS011;11181;51.002;4.356;2022-12-18T01:41:56;44.53;;;21.30;;
22034;SDS011;11181;51.002;4.356;2022-12-18T01:47:24;39.40;;;20.00;;
22034;SDS011;11181;51.002;4.356;2022-12-18T01:49:55;42.37;;;19.23;;
22034;SDS011;11181;51.002;4.356;2022-12-18T01:52:23;39.10;;;18.40;;
22034;SDS011;11181;51.002;4.356;2022-12-18T01:54:52;35.73;;;19.50;;
22034;SDS011;11181;51.002;4.356;2022-12-18T01:57:20;35.73;;;17.13;;
22034;SDS011;11181;51.002;4.356;2022-12-18T01:59:50;39.23;;;21.33;;
22034;SDS011;11181;51.002;4.356;2022-12-18T02:02:21;41.77;;;21.20;;
22034;SDS011;11181;51.002;4.356;2022-12-18T02:04:48;43.53;;;19.53;;
22034;SDS011;11181;51.002;4.356;2022-12-18T02:07:17;42.37;;;20.70;;
22034;SDS011;11181;51.002;4.356;2022-12-18T02:09:52;40.83;;;18.70;;
22034;SDS011;11181;51.002;4.356;2022-12-18T02:12:27;41.00;;;19.77;;
22034;SDS011;11181;51.002;4.356;2022-12-18T02:15:02;41.10;;;19.97;;
22034;SDS011;11181;51.002;4.356;2022-12-18T02:17:38;35.20;;;18.60;;
22034;SDS011;11181;51.002;4.356;2022-12-18T02:20:12;36.40;;;18.10;;
22034;SDS011;11181;51.002;4.356;2022-12-18T02:22:44;40.70;;;18.43;;
22034;SDS011;11181;51.002;4.356;2022-12-18T02:25:23;35.10;;;18.03;;
22034;SDS011;11181;51.002;4.356;2022-12-18T02:28:02;30.60;;;18.93;;
22034;SDS011;11181;51.002;4.356;2022-12-18T02:30:33;34.03;;;18.83;;
22034;SDS011;11181;51.002;4.356;2022-12-18T02:33:01;38.37;;;19.33;;
22034;SDS011;11181;51.002;4.356;2022-12-18T02:35:31;37.40;;;18.90;;
22034;SDS011;11181;51.002;4.356;2022-12-18T02:37:59;39.17;;;18.83;;
22034;SDS011;11181;51.002;4.356;2022-12-18T02:40:28;32.00;;;17.20;;
22034;SDS011;11181;51.002;4.356;2022-12-18T02:42:56;37.40;;;18.53;;
22034;SDS011;11181;51.002;4.356;2022-12-18T02:45:32;36.43;;;18.70;;
22034;SDS011;11181;51.002;4.356;2022-12-18T02:47:59;37.63;;;19.43;;
22034;SDS011;11181;51.002;4.356;2022-12-18T02:50:30;36.37;;;17.37;;
22034;SDS011;11181;51.002;4.356;2022-12-18T02:53:06;32.67;;;16.97;;
22034;SDS011;11181;51.002;4.356;2022-12-18T02:55:44;35.70;;;16.43;;
22034;SDS011;11181;51.002;4.356;2022-12-18T02:58:25;31.83;;;17.07;;
22034;SDS011;11181;51.002;4.356;2022-12-18T03:00:58;29.07;;;16.33;;
22034;SDS011;11181;51.002;4.356;2022-12-18T03:03:29;33.07;;;16.67;;
22034;SDS011;11181;51.002;4.356;2022-12-18T03:06:01;32.33;;;17.90;;
22034;SDS011;11181;51.002;4.356;2022-12-18T03:08:33;35.13;;;17.57;;
22034;SDS011;11181;51.002;4.356;2022-12-18T03:11:04;41.20;;;19.37;;
22034;SDS011;11181;51.002;4.356;2022-12-18T03:13:36;30.13;;;16.80;;
22034;SDS011;11181;51.002;4.356;2022-12-18T03:16:07;35.47;;;16.60;;
22034;SDS011;11181;51.002;4.356;2022-12-18T03:18:37;34.60;;;17.33;;
22034;SDS011;11181;51.002;4.356;2022-12-18T03:21:09;30.00;;;17.17;;
22034;SDS011;11181;51.002;4.356;2022-12-18T03:23:39;35.63;;;17.40;;
22034;SDS011;11181;51.002;4.356;2022-12-18T03:26:09;34.17;;;17.00;;
22034;SDS011;11181;51.002;4.356;2022-12-18T03:28:42;36.40;;;16.67;;
22034;SDS011;11181;51.002;4.356;2022-12-18T03:31:12;36.30;;;17.57;;
22034;SDS011;11181;51.002;4.356;2022-12-18T03:33:41;35.47;;;17.33;;
22034;SDS011;11181;51.002;4.356;2022-12-18T03:36:12;32.80;;;15.97;;
22034;SDS011;11181;51.002;4.356;2022-12-18T03:38:39;34.90;;;17.27;;
22034;SDS011;11181;51.002;4.356;2022-12-18T03:41:07;32.60;;;14.80;;
22034;SDS011;11181;51.002;4.356;2022-12-18T03:43:50;31.53;;;17.33;;
22034;SDS011;11181;51.002;4.356;2022-12-18T03:46:23;38.83;;;17.33;;
22034;SDS011;11181;51.002;4.356;2022-12-18T03:48:56;33.60;;;15.87;;
22034;SDS011;11181;51.002;4.356;2022-12-18T03:51:28;30.77;;;16.63;;
22034;SDS011;11181;51.002;4.356;2022-12-18T03:54:03;37.40;;;17.77;;
22034;SDS011;11181;51.002;4.356;2022-12-18T03:56:33;33.47;;;17.77;;
22034;SDS011;11181;51.002;4.356;2022-12-18T03:59:05;36.27;;;18.27;;
22034;SDS011;11181;51.002;4.356;2022-12-18T04:01:35;35.27;;;17.37;;
22034;SDS011;11181;51.002;4.356;2022-12-18T04:04:06;37.83;;;16.77;;
22034;SDS011;11181;51.002;4.356;2022-12-18T04:06:36;28.93;;;15.90;;
22034;SDS011;11181;51.002;4.356;2022-12-18T04:09:04;33.60;;;17.60;;
22034;SDS011;11181;51.002;4.356;2022-12-18T04:11:32;33.30;;;17.17;;
22034;SDS011;11181;51.002;4.356;2022-12-18T04:13:59;35.57;;;18.33;;
22034;SDS011;11181;51.002;4.356;2022-12-18T04:16:27;29.93;;;16.33;;
22034;SDS011;11181;51.002;4.356;2022-12-18T04:18:54;35.33;;;17.00;;
22034;SDS011;11181;51.002;4.356;2022-12-18T04:21:21;36.03;;;18.87;;
22034;SDS011;11181;51.002;4.356;2022-12-18T04:23:48;31.97;;;15.10;;
22034;SDS011;11181;51.002;4.356;2022-12-18T04:26:15;34.57;;;17.53;;
22034;SDS011;11181;51.002;4.356;2022-12-18T04:28:42;30.93;;;16.23;;
22034;SDS011;11181;51.002;4.356;2022-12-18T04:31:09;32.20;;;16.67;;
22034;SDS011;11181;51.002;4.356;2022-12-18T04:33:38;33.07;;;15.53;;
22034;SDS011;11181;51.002;4.356;2022-12-18T04:36:05;28.90;;;15.50;;
22034;SDS011;11181;51.002;4.356;2022-12-18T04:38:32;29.00;;;15.40;;
22034;SDS011;11181;51.002;4.356;2022-12-18T04:40:59;31.07;;;15.93;;
22034;SDS011;11181;51.002;4.356;2022-12-18T04:43:26;32.07;;;15.90;;
22034;SDS011;11181;51.002;4.356;2022-12-18T04:45:53;30.60;;;14.10;;
22034;SDS011;11181;51.002;4.356;2022-12-18T04:48:26;27.60;;;14.37;;
22034;SDS011;11181;51.002;4.356;2022-12-18T04:50:55;25.03;;;14.50;;
22034;SDS011;11181;51.002;4.356;2022-12-18T04:53:22;29.20;;;15.27;;
22034;SDS011;11181;51.002;4.356;2022-12-18T04:55:48;31.43;;;14.60;;
22034;SDS011;11181;51.002;4.356;2022-12-18T04:58:15;31.57;;;14.73;;
22034;SDS011;11181;51.002;4.356;2022-12-18T05:00:42;29.80;;;15.57;;
22034;SDS011;11181;51.002;4.356;2022-12-18T05:03:09;32.07;;;14.77;;
22034;SDS011;11181;51.002;4.356;2022-12-18T05:05:36;31.47;;;16.00;;
22034;SDS011;11181;51.002;4.356;2022-12-18T05:08:05;31.13;;;15.40;;
22034;SDS011;11181;51.002;4.356;2022-12-18T05:10:32;31.63;;;16.17;;
22034;SDS011;11181;51.002;4.356;2022-12-18T05:12:58;34.87;;;16.00;;
22034;SDS011;11181;51.002;4.356;2022-12-18T05:15:26;33.83;;;16.23;;
22034;SDS011;11181;51.002;4.356;2022-12-18T05:17:54;29.80;;;16.33;;
22034;SDS011;11181;51.002;4.356;2022-12-18T05:20:21;27.33;;;14.17;;
22034;SDS011;11181;51.002;4.356;2022-12-18T05:22:48;27.03;;;15.00;;
22034;SDS011;11181;51.002;4.356;2022-12-18T05:25:16;29.73;;;13.87;;
22034;SDS011;11181;51.002;4.356;2022-12-18T05:27:44;30.87;;;16.17;;
22034;SDS011;11181;51.002;4.356;2022-12-18T05:30:11;28.80;;;14.37;;
22034;SDS011;11181;51.002;4.356;2022-12-18T05:32:38;37.07;;;14.67;;
22034;SDS011;11181;51.002;4.356;2022-12-18T05:35:06;25.17;;;13.03;;
22034;SDS011;11181;51.002;4.356;2022-12-18T05:37:34;26.70;;;14.07;;
22034;SDS011;11181;51.002;4.356;2022-12-18T05:40:02;28.10;;;13.87;;
22034;SDS011;11181;51.002;4.356;2022-12-18T05:42:31;29.97;;;16.93;;
22034;SDS011;11181;51.002;4.356;2022-12-18T05:44:58;31.57;;;16.87;;
22034;SDS011;11181;51.002;4.356;2022-12-18T05:47:26;27.07;;;14.77;;
22034;SDS011;11181;51.002;4.356;2022-12-18T05:49:53;30.80;;;15.20;;
22034;SDS011;11181;51.002;4.356;2022-12-18T05:52:20;29.63;;;16.13;;
22034;SDS011;11181;51.002;4.356;2022-12-18T05:54:47;26.10;;;14.27;;
22034;SDS011;11181;51.002;4.356;2022-12-18T05:57:13;35.63;;;16.03;;
22034;SDS011;11181;51.002;4.356;2022-12-18T05:59:42;27.53;;;14.93;;
22034;SDS011;11181;51.002;4.356;2022-12-18T06:02:09;27.60;;;14.53;;
22034;SDS011;11181;51.002;4.356;2022-12-18T06:04:36;34.70;;;15.30;;
22034;SDS011;11181;51.002;4.356;2022-12-18T06:07:03;25.70;;;13.47;;
22034;SDS011;11181;51.002;4.356;2022-12-18T06:09:30;32.23;;;14.80;;
22034;SDS011;11181;51.002;4.356;2022-12-18T06:11:57;26.67;;;13.40;;
22034;SDS011;11181;51.002;4.356;2022-12-18T06:14:23;26.27;;;14.07;;
22034;SDS011;11181;51.002;4.356;2022-12-18T06:16:52;27.97;;;15.87;;
22034;SDS011;11181;51.002;4.356;2022-12-18T06:19:19;27.97;;;16.07;;
22034;SDS011;11181;51.002;4.356;2022-12-18T06:21:46;29.87;;;15.33;;
22034;SDS011;11181;51.002;4.356;2022-12-18T06:24:14;24.97;;;13.50;;
22034;SDS011;11181;51.002;4.356;2022-12-18T06:26:41;30.10;;;14.90;;
22034;SDS011;11181;51.002;4.356;2022-12-18T06:29:08;33.87;;;14.07;;
22034;SDS011;11181;51.002;4.356;2022-12-18T06:31:35;23.07;;;13.07;;
22034;SDS011;11181;51.002;4.356;2022-12-18T06:34:04;27.73;;;15.27;;
22034;SDS011;11181;51.002;4.356;2022-12-18T06:36:31;21.33;;;12.73;;
22034;SDS011;11181;51.002;4.356;2022-12-18T06:38:58;25.77;;;13.30;;
22034;SDS011;11181;51.002;4.356;2022-12-18T06:41:25;26.47;;;14.90;;
22034;SDS011;11181;51.002;4.356;2022-12-18T06:43:52;30.53;;;14.57;;
22034;SDS011;11181;51.002;4.356;2022-12-18T06:46:19;25.77;;;13.20;;
22034;SDS011;11181;51.002;4.356;2022-12-18T06:48:47;30.87;;;13.17;;
22034;SDS011;11181;51.002;4.356;2022-12-18T06:51:19;25.03;;;14.77;;
22034;SDS011;11181;51.002;4.356;2022-12-18T06:53:47;27.60;;;14.13;;
22034;SDS011;11181;51.002;4.356;2022-12-18T06:56:14;23.27;;;13.00;;
22034;SDS011;11181;51.002;4.356;2022-12-18T06:58:41;24.83;;;13.33;;
22034;SDS011;11181;51.002;4.356;2022-12-18T07:01:09;25.77;;;13.83;;
22034;SDS011;11181;51.002;4.356;2022-12-18T07:03:37;24.77;;;12.97;;
22034;SDS011;11181;51.002;4.356;2022-12-18T07:06:04;26.77;;;13.63;;
22034;SDS011;11181;51.002;4.356;2022-12-18T07:08:33;21.53;;;13.57;;
22034;SDS011;11181;51.002;4.356;2022-12-18T07:11:02;20.47;;;11.30;;
22034;SDS011;11181;51.002;4.356;2022-12-18T07:13:30;23.67;;;11.83;;
22034;SDS011;11181;51.002;4.356;2022-12-18T07:16:02;21.87;;;12.10;;
22034;SDS011;11181;51.002;4.356;2022-12-18T07:18:31;21.40;;;12.67;;
22034;SDS011;11181;51.002;4.356;2022-12-18T07:20:58;23.37;;;12.57;;
22034;SDS011;11181;51.002;4.356;2022-12-18T07:23:28;23.17;;;12.93;;
22034;SDS011;11181;51.002;4.356;2022-12-18T07:25:59;25.17;;;12.80;;
22034;SDS011;11181;51.002;4.356;2022-12-18T07:28:27;24.87;;;11.47;;
22034;SDS011;11181;51.002;4.356;2022-12-18T07:30:54;21.60;;;12.33;;
22034;SDS011;11181;51.002;4.356;2022-12-18T07:33:21;23.87;;;11.33;;
22034;SDS011;11181;51.002;4.356;2022-12-18T07:35:47;26.47;;;12.67;;
22034;SDS011;11181;51.002;4.356;2022-12-18T07:38:14;25.53;;;12.07;;
22034;SDS011;11181;51.002;4.356;2022-12-18T07:40:41;21.47;;;11.27;;
22034;SDS011;11181;51.002;4.356;2022-12-18T07:43:10;24.83;;;13.17;;
22034;SDS011;11181;51.002;4.356;2022-12-18T07:45:36;23.00;;;11.90;;
22034;SDS011;11181;51.002;4.356;2022-12-18T07:48:03;27.27;;;12.57;;
22034;SDS011;11181;51.002;4.356;2022-12-18T07:50:31;25.47;;;13.37;;
22034;SDS011;11181;51.002;4.356;2022-12-18T07:52:57;29.83;;;12.17;;
22034;SDS011;11181;51.002;4.356;2022-12-18T07:55:28;24.50;;;12.80;;
22034;SDS011;11181;51.002;4.356;2022-12-18T07:57:55;24.70;;;11.97;;
22034;SDS011;11181;51.002;4.356;2022-12-18T08:00:23;30.93;;;12.20;;
22034;SDS011;11181;51.002;4.356;2022-12-18T08:02:50;24.00;;;11.90;;
22034;SDS011;11181;51.002;4.356;2022-12-18T08:05:17;28.50;;;12.40;;
22034;SDS011;11181;51.002;4.356;2022-12-18T08:07:45;26.83;;;12.93;;
22034;SDS011;11181;51.002;4.356;2022-12-18T08:10:12;22.03;;;11.70;;
22034;SDS011;11181;51.002;4.356;2022-12-18T08:12:39;24.87;;;12.87;;
22034;SDS011;11181;51.002;4.356;2022-12-18T08:15:07;27.47;;;12.00;;
22034;SDS011;11181;51.002;4.356;2022-12-18T08:17:35;21.40;;;11.67;;
22034;SDS011;11181;51.002;4.356;2022-12-18T08:20:02;24.73;;;12.67;;
22034;SDS011;11181;51.002;4.356;2022-12-18T08:22:29;18.43;;;10.57;;
22034;SDS011;11181;51.002;4.356;2022-12-18T08:24:56;22.33;;;12.13;;
22034;SDS011;11181;51.002;4.356;2022-12-18T08:27:23;19.37;;;10.47;;
22034;SDS011;11181;51.002;4.356;2022-12-18T08:29:50;38.90;;;18.13;;
22034;SDS011;11181;51.002;4.356;2022-12-18T08:32:17;23.93;;;11.07;;
22034;SDS011;11181;51.002;4.356;2022-12-18T08:34:45;16.67;;;11.07;;
22034;SDS011;11181;51.002;4.356;2022-12-18T08:37:12;22.50;;;10.80;;
22034;SDS011;11181;51.002;4.356;2022-12-18T08:39:39;21.50;;;10.57;;
22034;SDS011;11181;51.002;4.356;2022-12-18T08:42:06;25.97;;;13.87;;
22034;SDS011;11181;51.002;4.356;2022-12-18T08:44:50;20.07;;;11.27;;
22034;SDS011;11181;51.002;4.356;2022-12-18T08:47:17;20.37;;;12.83;;
22034;SDS011;11181;51.002;4.356;2022-12-18T08:49:45;20.33;;;11.67;;
22034;SDS011;11181;51.002;4.356;2022-12-18T08:52:12;17.83;;;11.47;;
22034;SDS011;11181;51.002;4.356;2022-12-18T08:54:39;22.43;;;12.03;;
22034;SDS011;11181;51.002;4.356;2022-12-18T08:57:06;24.53;;;11.93;;
22034;SDS011;11181;51.002;4.356;2022-12-18T08:59:33;21.80;;;11.93;;
22034;SDS011;11181;51.002;4.356;2022-12-18T09:02:00;24.50;;;11.63;;
22034;SDS011;11181;51.002;4.356;2022-12-18T09:04:27;19.33;;;11.30;;
22034;SDS011;11181;51.002;4.356;2022-12-18T09:06:55;17.73;;;10.47;;
22034;SDS011;11181;51.002;4.356;2022-12-18T09:09:22;17.43;;;11.43;;
22034;SDS011;11181;51.002;4.356;2022-12-18T09:11:49;20.17;;;10.50;;
22034;SDS011;11181;51.002;4.356;2022-12-18T09:14:16;19.80;;;11.20;;
22034;SDS011;11181;51.002;4.356;2022-12-18T09:16:43;19.97;;;11.30;;
22034;SDS011;11181;51.002;4.356;2022-12-18T09:19:10;22.47;;;10.50;;
22034;SDS011;11181;51.002;4.356;2022-12-18T09:21:37;20.67;;;10.83;;
22034;SDS011;11181;51.002;4.356;2022-12-18T09:24:06;18.93;;;10.20;;
22034;SDS011;11181;51.002;4.356;2022-12-18T09:26:37;17.70;;;10.97;;
22034;SDS011;11181;51.002;4.356;2022-12-18T09:29:04;20.60;;;10.80;;
22034;SDS011;11181;51.002;4.356;2022-12-18T09:31:32;24.93;;;11.23;;
22034;SDS011;11181;51.002;4.356;2022-12-18T09:33:59;22.13;;;11.17;;
22034;SDS011;11181;51.002;4.356;2022-12-18T09:36:26;17.90;;;10.40;;
22034;SDS011;11181;51.002;4.356;2022-12-18T09:38:53;19.30;;;10.10;;
22034;SDS011;11181;51.002;4.356;2022-12-18T09:41:30;17.23;;;10.30;;
22034;SDS011;11181;51.002;4.356;2022-12-18T09:44:10;13.10;;;8.17;;
22034;SDS011;11181;51.002;4.356;2022-12-18T09:46:44;16.50;;;9.80;;
22034;SDS011;11181;51.002;4.356;2022-12-18T09:49:14;17.00;;;9.47;;
22034;SDS011;11181;51.002;4.356;2022-12-18T09:51:45;17.17;;;10.20;;
22034;SDS011;11181;51.002;4.356;2022-12-18T09:54:16;13.17;;;9.43;;
22034;SDS011;11181;51.002;4.356;2022-12-18T09:56:48;16.27;;;9.23;;
22034;SDS011;11181;51.002;4.356;2022-12-18T09:59:18;19.17;;;10.60;;
22034;SDS011;11181;51.002;4.356;2022-12-18T10:01:50;15.30;;;9.10;;
22034;SDS011;11181;51.002;4.356;2022-12-18T10:04:17;19.83;;;10.73;;
22034;SDS011;11181;51.002;4.356;2022-12-18T10:06:46;15.23;;;10.03;;
22034;SDS011;11181;51.002;4.356;2022-12-18T10:09:20;15.13;;;9.60;;
22034;SDS011;11181;51.002;4.356;2022-12-18T10:11:58;17.57;;;9.57;;
22034;SDS011;11181;51.002;4.356;2022-12-18T10:14:34;18.43;;;9.20;;
22034;SDS011;11181;51.002;4.356;2022-12-18T10:17:09;18.37;;;9.70;;
22034;SDS011;11181;51.002;4.356;2022-12-18T10:19:43;17.03;;;9.50;;
22034;SDS011;11181;51.002;4.356;2022-12-18T10:22:19;20.30;;;9.17;;
22034;SDS011;11181;51.002;4.356;2022-12-18T10:24:54;18.57;;;9.93;;
22034;SDS011;11181;51.002;4.356;2022-12-18T10:27:28;16.27;;;9.03;;
22034;SDS011;11181;51.002;4.356;2022-12-18T10:29:55;14.83;;;9.57;;
22034;SDS011;11181;51.002;4.356;2022-12-18T10:32:24;15.63;;;10.10;;
22034;SDS011;11181;51.002;4.356;2022-12-18T10:34:53;18.80;;;9.80;;
22034;SDS011;11181;51.002;4.356;2022-12-18T10:37:22;15.50;;;8.40;;
22034;SDS011;11181;51.002;4.356;2022-12-18T10:40:04;15.00;;;8.27;;
22034;SDS011;11181;51.002;4.356;2022-12-18T10:42:35;15.47;;;8.73;;
22034;SDS011;11181;51.002;4.356;2022-12-18T10:45:05;18.33;;;10.10;;
22034;SDS011;11181;51.002;4.356;2022-12-18T10:47:41;14.83;;;8.97;;
22034;SDS011;11181;51.002;4.356;2022-12-18T10:50:17;17.13;;;9.60;;
22034;SDS011;11181;51.002;4.356;2022-12-18T10:52:53;19.83;;;11.63;;
22034;SDS011;11181;51.002;4.356;2022-12-18T10:55:21;20.50;;;10.43;;
22034;SDS011;11181;51.002;4.356;2022-12-18T10:57:50;19.50;;;10.80;;
22034;SDS011;11181;51.002;4.356;2022-12-18T11:00:24;16.03;;;10.20;;
22034;SDS011;11181;51.002;4.356;2022-12-18T11:02:52;16.40;;;9.53;;
22034;SDS011;11181;51.002;4.356;2022-12-18T11:05:25;16.20;;;9.37;;
22034;SDS011;11181;51.002;4.356;2022-12-18T11:07:53;16.90;;;9.87;;
22034;SDS011;11181;51.002;4.356;2022-12-18T11:10:22;18.43;;;10.00;;
22034;SDS011;11181;51.002;4.356;2022-12-18T11:12:53;19.03;;;10.40;;
22034;SDS011;11181;51.002;4.356;2022-12-18T11:15:21;17.83;;;10.80;;
22034;SDS011;11181;51.002;4.356;2022-12-18T11:17:52;19.50;;;10.13;;
22034;SDS011;11181;51.002;4.356;2022-12-18T11:20:21;18.97;;;10.63;;
22034;SDS011;11181;51.002;4.356;2022-12-18T11:22:57;16.33;;;10.97;;
22034;SDS011;11181;51.002;4.356;2022-12-18T11:25:26;23.23;;;14.57;;
22034;SDS011;11181;51.002;4.356;2022-12-18T11:27:56;20.77;;;10.93;;
22034;SDS011;11181;51.002;4.356;2022-12-18T11:30:25;19.87;;;12.20;;
22034;SDS011;11181;51.002;4.356;2022-12-18T11:32:54;17.80;;;11.27;;
22034;SDS011;11181;51.002;4.356;2022-12-18T11:35:27;21.60;;;11.80;;
22034;SDS011;11181;51.002;4.356;2022-12-18T11:38:02;17.97;;;11.27;;
22034;SDS011;11181;51.002;4.356;2022-12-18T11:40:36;21.60;;;12.73;;
22034;SDS011;11181;51.002;4.356;2022-12-18T11:43:10;17.10;;;12.23;;
22034;SDS011;11181;51.002;4.356;2022-12-18T11:45:41;16.87;;;11.00;;
22034;SDS011;11181;51.002;4.356;2022-12-18T11:48:14;18.50;;;11.33;;
22034;SDS011;11181;51.002;4.356;2022-12-18T11:50:49;20.97;;;11.40;;
22034;SDS011;11181;51.002;4.356;2022-12-18T11:53:17;17.37;;;10.47;;
22034;SDS011;11181;51.002;4.356;2022-12-18T11:55:50;22.23;;;11.70;;
22034;SDS011;11181;51.002;4.356;2022-12-18T11:58:37;23.37;;;13.27;;
22034;SDS011;11181;51.002;4.356;2022-12-18T12:01:17;21.77;;;12.27;;
22034;SDS011;11181;51.002;4.356;2022-12-18T12:04:01;22.73;;;12.37;;
22034;SDS011;11181;51.002;4.356;2022-12-18T12:06:47;21.47;;;12.57;;
22034;SDS011;11181;51.002;4.356;2022-12-18T12:09:24;19.13;;;10.33;;
22034;SDS011;11181;51.002;4.356;2022-12-18T12:12:01;19.57;;;12.53;;
22034;SDS011;11181;51.002;4.356;2022-12-18T12:14:45;18.37;;;11.93;;
22034;SDS011;11181;51.002;4.356;2022-12-18T12:17:23;19.57;;;10.30;;
22034;SDS011;11181;51.002;4.356;2022-12-18T12:19:59;17.20;;;9.90;;
22034;SDS011;11181;51.002;4.356;2022-12-18T12:22:35;21.27;;;11.23;;
22034;SDS011;11181;51.002;4.356;2022-12-18T12:25:16;17.97;;;10.67;;
22034;SDS011;11181;51.002;4.356;2022-12-18T12:27:54;16.80;;;11.10;;
22034;SDS011;11181;51.002;4.356;2022-12-18T12:30:35;18.30;;;10.80;;
22034;SDS011;11181;51.002;4.356;2022-12-18T12:33:13;16.57;;;10.87;;
22034;SDS011;11181;51.002;4.356;2022-12-18T12:35:51;20.07;;;11.13;;
22034;SDS011;11181;51.002;4.356;2022-12-18T12:38:27;17.77;;;10.73;;
22034;SDS011;11181;51.002;4.356;2022-12-18T12:40:59;19.53;;;11.43;;
22034;SDS011;11181;51.002;4.356;2022-12-18T12:43:31;18.90;;;10.77;;
22034;SDS011;11181;51.002;4.356;2022-12-18T12:46:02;16.77;;;10.93;;
22034;SDS011;11181;51.002;4.356;2022-12-18T12:48:33;14.90;;;10.70;;
22034;SDS011;11181;51.002;4.356;2022-12-18T12:51:08;19.57;;;11.63;;
22034;SDS011;11181;51.002;4.356;2022-12-18T12:53:39;20.23;;;12.60;;
22034;SDS011;11181;51.002;4.356;2022-12-18T12:56:07;17.83;;;12.00;;
22034;SDS011;11181;51.002;4.356;2022-12-18T12:58:39;19.37;;;13.23;;
22034;SDS011;11181;51.002;4.356;2022-12-18T13:01:16;19.27;;;12.33;;
22034;SDS011;11181;51.002;4.356;2022-12-18T13:03:52;18.47;;;11.17;;
22034;SDS011;11181;51.002;4.356;2022-12-18T13:06:33;16.83;;;11.13;;
22034;SDS011;11181;51.002;4.356;2022-12-18T13:09:06;17.53;;;10.70;;
22034;SDS011;11181;51.002;4.356;2022-12-18T13:11:37;19.03;;;12.63;;
22034;SDS011;11181;51.002;4.356;2022-12-18T13:14:24;18.67;;;13.00;;
22034;SDS011;11181;51.002;4.356;2022-12-18T13:19:42;19.47;;;11.60;;
22034;SDS011;11181;51.002;4.356;2022-12-18T13:22:20;18.30;;;11.43;;
22034;SDS011;11181;51.002;4.356;2022-12-18T13:24:48;18.33;;;11.87;;
22034;SDS011;11181;51.002;4.356;2022-12-18T13:36:12;23.17;;;12.33;;
22034;SDS011;11181;51.002;4.356;2022-12-18T13:38:41;18.77;;;11.93;;
22034;SDS011;11181;51.002;4.356;2022-12-18T13:41:23;16.27;;;11.37;;
22034;SDS011;11181;51.002;4.356;2022-12-18T13:43:51;22.07;;;13.03;;
22034;SDS011;11181;51.002;4.356;2022-12-18T13:46:21;25.23;;;14.10;;
22034;SDS011;11181;51.002;4.356;2022-12-18T13:48:52;24.10;;;14.13;;
22034;SDS011;11181;51.002;4.356;2022-12-18T13:51:22;20.63;;;13.40;;
22034;SDS011;11181;51.002;4.356;2022-12-18T13:53:51;24.83;;;13.13;;
22034;SDS011;11181;51.002;4.356;2022-12-18T13:56:24;29.50;;;19.23;;
22034;SDS011;11181;51.002;4.356;2022-12-18T13:59:12;25.20;;;15.60;;
22034;SDS011;11181;51.002;4.356;2022-12-18T14:01:41;49.63;;;31.03;;
22034;SDS011;11181;51.002;4.356;2022-12-18T14:04:19;26.60;;;16.47;;
22034;SDS011;11181;51.002;4.356;2022-12-18T14:06:49;45.77;;;26.43;;
22034;SDS011;11181;51.002;4.356;2022-12-18T14:09:19;45.17;;;27.87;;
22034;SDS011;11181;51.002;4.356;2022-12-18T14:11:50;34.23;;;23.70;;
22034;SDS011;11181;51.002;4.356;2022-12-18T14:14:40;27.17;;;16.57;;
22034;SDS011;11181;51.002;4.356;2022-12-18T14:17:09;24.47;;;13.23;;
22034;SDS011;11181;51.002;4.356;2022-12-18T14:19:41;26.20;;;13.83;;
22034;SDS011;11181;51.002;4.356;2022-12-18T14:22:16;27.20;;;12.90;;
22034;SDS011;11181;51.002;4.356;2022-12-18T14:24:44;22.40;;;12.40;;
22034;SDS011;11181;51.002;4.356;2022-12-18T14:27:12;23.57;;;13.83;;
22034;SDS011;11181;51.002;4.356;2022-12-18T14:29:47;27.67;;;14.50;;
22034;SDS011;11181;51.002;4.356;2022-12-18T14:32:14;28.70;;;13.57;;
22034;SDS011;11181;51.002;4.356;2022-12-18T14:34:44;23.93;;;13.40;;
22034;SDS011;11181;51.002;4.356;2022-12-18T14:37:13;23.43;;;13.27;;
22034;SDS011;11181;51.002;4.356;2022-12-18T14:39:51;22.70;;;13.07;;
22034;SDS011;11181;51.002;4.356;2022-12-18T14:42:23;24.13;;;12.10;;
22034;SDS011;11181;51.002;4.356;2022-12-18T14:47:53;24.00;;;14.13;;
22034;SDS011;11181;51.002;4.356;2022-12-18T14:50:21;29.73;;;14.97;;
22034;SDS011;11181;51.002;4.356;2022-12-18T14:52:48;24.07;;;13.90;;
22034;SDS011;11181;51.002;4.356;2022-12-18T14:55:16;32.60;;;17.00;;
22034;SDS011;11181;51.002;4.356;2022-12-18T14:57:44;26.17;;;14.57;;